Time;durP1;ratioP1;P1;durP2;ratioP2;P2;SDS_P1;SDS_P2;PMS_P1;PMS_P2;Temp;Humidity;BMP_temperature;BMP_pressure;BME280_temperature;BME280_humidity;BME280_pressure;Samples;Min_cycle;Max_cycle;Signal;HPM_P1;HPM_P2
2021/08/29 00:00:28;;;;;;;12.90;4.90;;;;;;;12.71;100.00;102176.53;5230246;28;20048;-80
2021/08/29 00:02:59;;;;;;;14.43;4.75;;;;;;;12.74;100.00;102180.78;5230452;28;20032;-81
2021/08/29 00:05:29;;;;;;;14.10;5.47;;;;;;;12.79;100.00;102168.56;5230106;28;20074;-81
2021/08/29 00:08:00;;;;;;;10.63;4.88;;;;;;;12.75;100.00;102169.88;5229453;28;20029;-81
2021/08/29 00:10:30;;;;;;;13.52;5.40;;;;;;;12.70;100.00;102169.44;5217543;28;20017;-81
2021/08/29 00:13:00;;;;;;;15.35;5.32;;;;;;;12.66;100.00;102165.38;5230831;28;20048;-81
2021/08/29 00:15:31;;;;;;;14.60;5.38;;;;;;;12.60;100.00;102168.63;5230173;28;20025;-80
2021/08/29 00:18:01;;;;;;;19.38;5.22;;;;;;;12.61;100.00;102168.50;5229959;28;20031;-81
2021/08/29 00:20:32;;;;;;;16.65;5.20;;;;;;;12.67;100.00;102169.75;5229243;28;20112;-80
2021/08/29 00:23:02;;;;;;;18.10;5.25;;;;;;;12.65;100.00;102166.34;5229763;28;20102;-81
2021/08/29 00:25:33;;;;;;;14.25;5.47;;;;;;;12.66;100.00;102168.91;5230324;28;20013;-81
2021/08/29 00:28:05;;;;;;;12.10;5.32;;;;;;;12.77;100.00;102167.88;5230528;28;20017;-81
2021/08/29 00:30:35;;;;;;;18.60;5.53;;;;;;;12.77;100.00;102170.56;5229338;28;20083;-80
2021/08/29 00:33:06;;;;;;;12.60;5.03;;;;;;;12.74;100.00;102160.06;5229327;28;20044;-81
2021/08/29 00:35:36;;;;;;;13.05;5.22;;;;;;;12.74;100.00;102162.78;5211511;28;20109;-80
2021/08/29 00:38:07;;;;;;;16.23;4.97;;;;;;;12.70;100.00;102164.94;5228928;28;20732;-81
2021/08/29 00:40:37;;;;;;;14.25;4.97;;;;;;;12.70;100.00;102164.94;5229414;28;20025;-80
2021/08/29 00:43:08;;;;;;;17.70;5.53;;;;;;;12.61;100.00;102163.13;5229989;28;20406;-81
2021/08/29 00:45:38;;;;;;;25.50;5.15;;;;;;;12.67;100.00;102159.84;5229021;28;20044;-80
2021/08/29 00:48:10;;;;;;;14.27;5.25;;;;;;;12.69;100.00;102149.75;5219165;28;20037;-80
2021/08/29 00:50:44;;;;;;;15.43;5.13;;;;;;;12.62;100.00;102159.44;5226608;28;20021;-80
2021/08/29 00:53:16;;;;;;;21.75;5.32;;;;;;;12.55;100.00;102157.47;5229471;28;20025;-80
2021/08/29 00:55:48;;;;;;;13.80;4.75;;;;;;;12.58;100.00;102157.19;5228894;28;20021;-81
2021/08/29 00:58:21;;;;;;;15.50;5.53;;;;;;;12.46;100.00;102147.59;5229502;28;20028;-80
2021/08/29 01:00:52;;;;;;;14.98;6.50;;;;;;;12.48;100.00;102146.44;5229086;28;20029;-81
2021/08/29 01:03:27;;;;;;;14.63;5.50;;;;;;;12.42;100.00;102149.72;5218084;28;20093;-80
2021/08/29 01:06:10;;;;;;;14.27;5.47;;;;;;;12.40;100.00;102149.88;5229064;28;20029;-81
2021/08/29 01:08:43;;;;;;;16.05;5.78;;;;;;;12.39;100.00;102156.22;5216047;28;20043;-80
2021/08/29 01:11:17;;;;;;;19.77;6.22;;;;;;;12.31;100.00;102150.75;5229164;28;20490;-80
2021/08/29 01:13:57;;;;;;;19.00;5.63;;;;;;;12.35;100.00;102151.28;5207981;28;20043;-81
2021/08/29 01:16:32;;;;;;;18.27;5.68;;;;;;;12.32;100.00;102149.75;5224279;28;20029;-81
2021/08/29 01:19:12;;;;;;;17.95;6.72;;;;;;;12.32;100.00;102149.75;5228683;28;20482;-81
2021/08/29 01:21:49;;;;;;;17.42;6.00;;;;;;;12.25;100.00;102143.28;5230009;28;20028;-81
2021/08/29 01:24:21;;;;;;;18.70;6.18;;;;;;;12.20;100.00;102150.94;5229473;28;20021;-80
2021/08/29 01:27:34;;;;;;;18.92;6.53;;;;;;;12.14;100.00;102148.78;5213815;28;20036;-80
2021/08/29 01:30:06;;;;;;;11.65;5.72;;;;;;;12.14;100.00;102141.56;5228651;28;20247;-81
2021/08/29 01:32:38;;;;;;;32.72;6.40;;;;;;;12.15;100.00;102142.44;5228825;28;20021;-81
2021/08/29 01:35:11;;;;;;;24.10;6.03;;;;;;;12.22;100.00;102138.16;5228526;28;20032;-81
2021/08/29 01:37:43;;;;;;;15.30;6.07;;;;;;;12.20;100.00;102145.56;5227937;28;20033;-81
2021/08/29 01:40:14;;;;;;;19.90;6.05;;;;;;;12.27;100.00;102141.28;5228061;28;20029;-80
2021/08/29 01:42:45;;;;;;;17.52;6.43;;;;;;;12.33;100.00;102150.59;5227978;28;20025;-81
2021/08/29 01:45:16;;;;;;;17.98;6.65;;;;;;;12.47;100.00;102147.44;5231220;28;20028;-79
2021/08/29 01:47:47;;;;;;;22.00;6.95;;;;;;;12.49;100.00;102148.13;5235246;28;20025;-81
2021/08/29 01:50:18;;;;;;;23.58;8.23;;;;;;;12.56;100.00;102149.25;5228183;28;20222;-80
2021/08/29 01:52:48;;;;;;;15.40;6.47;;;;;;;12.57;100.00;102142.88;5228294;28;20494;-79
2021/08/29 01:55:19;;;;;;;22.55;7.03;;;;;;;12.61;100.00;102144.28;5228939;28;20051;-81
2021/08/29 01:57:50;;;;;;;16.38;5.50;;;;;;;12.72;100.00;102135.16;5228550;28;20571;-81
2021/08/29 02:00:20;;;;;;;22.45;5.88;;;;;;;12.76;100.00;102141.94;5210315;28;20070;-80
2021/08/29 02:02:51;;;;;;;20.95;6.00;;;;;;;12.75;100.00;102151.03;5227965;28;20104;-80
2021/08/29 02:05:22;;;;;;;18.80;6.05;;;;;;;12.82;100.00;102137.81;5223005;28;20030;-81
2021/08/29 02:07:59;;;;;;;12.15;5.07;;;;;;;12.85;100.00;102146.44;5220562;28;20482;-81
2021/08/29 02:10:30;;;;;;;19.83;6.03;;;;;;;12.84;100.00;102142.03;5227696;28;20021;-81
2021/08/29 02:13:07;;;;;;;19.10;6.10;;;;;;;12.81;100.00;102145.03;5228105;28;20087;-81
2021/08/29 02:15:43;;;;;;;14.32;5.20;;;;;;;12.89;100.00;102145.13;5228717;28;20425;-81
2021/08/29 02:18:15;;;;;;;17.52;6.00;;;;;;;12.90;100.00;102143.28;5226827;28;20319;-81
2021/08/29 02:20:48;;;;;;;14.52;5.90;;;;;;;12.97;100.00;102141.69;5227737;28;20024;-81
2021/08/29 02:23:23;;;;;;;17.10;5.63;;;;;;;12.96;100.00;102138.16;5227891;28;20033;-81
2021/08/29 02:25:53;;;;;;;15.18;5.80;;;;;;;13.06;100.00;102138.09;5233023;28;20092;-81
2021/08/29 02:28:26;;;;;;;18.65;5.47;;;;;;;13.11;100.00;102141.19;5226995;28;20047;-82
2021/08/29 02:30:56;;;;;;;16.90;5.03;;;;;;;13.16;100.00;102138.88;5239721;28;20028;-80
2021/08/29 02:33:27;;;;;;;18.30;5.97;;;;;;;13.23;100.00;102146.38;5240412;28;20851;-81
2021/08/29 02:36:00;;;;;;;15.95;5.60;;;;;;;13.23;100.00;102146.38;5240407;28;20029;-81
2021/08/29 02:38:30;;;;;;;16.00;5.15;;;;;;;13.18;100.00;102142.25;5222848;28;20021;-80
2021/08/29 02:41:02;;;;;;;11.65;5.68;;;;;;;13.23;100.00;102138.31;5226361;28;20055;-81
2021/08/29 02:43:33;;;;;;;13.27;5.45;;;;;;;13.28;100.00;102144.94;5227140;28;20087;-81
2021/08/29 02:46:04;;;;;;;14.50;5.22;;;;;;;13.24;100.00;102142.69;5239575;28;20044;-81
2021/08/29 02:48:34;;;;;;;16.17;5.97;;;;;;;13.29;100.00;102148.47;5226060;28;20041;-81
2021/08/29 02:51:05;;;;;;;9.30;4.82;;;;;;;13.28;100.00;102146.78;5239527;28;20048;-81
2021/08/29 02:53:35;;;;;;;19.83;5.88;;;;;;;13.31;100.00;102151.88;5240550;28;20024;-80
2021/08/29 02:56:07;;;;;;;15.70;5.60;;;;;;;13.36;100.00;102146.88;5240465;28;20025;-81
2021/08/29 02:58:38;;;;;;;14.77;5.35;;;;;;;13.36;100.00;102138.78;5239893;28;20025;-81
2021/08/29 03:01:08;;;;;;;11.50;4.65;;;;;;;13.42;100.00;102138.16;5241764;28;20497;-80
2021/08/29 03:03:39;;;;;;;9.60;5.28;;;;;;;13.45;100.00;102132.44;5243599;28;20024;-80
2021/08/29 03:06:10;;;;;;;16.65;5.50;;;;;;;13.45;100.00;102132.44;5243892;28;20028;-80
2021/08/29 03:08:41;;;;;;;11.30;4.80;;;;;;;13.56;100.00;102134.94;5229510;28;20513;-80
2021/08/29 03:11:12;;;;;;;17.02;5.55;;;;;;;13.58;100.00;102132.91;5243497;28;20028;-80
2021/08/29 03:13:42;;;;;;;12.25;5.05;;;;;;;13.58;100.00;102132.91;5235555;28;20028;-81
2021/08/29 03:16:13;;;;;;;15.38;5.50;;;;;;;13.64;100.00;102132.28;5237197;28;20021;-80
2021/08/29 03:18:45;;;;;;;15.68;4.85;;;;;;;13.70;100.00;102126.31;5238896;28;20048;-81
2021/08/29 03:21:16;;;;;;;9.38;4.93;;;;;;;13.73;100.00;102123.28;5217744;28;20107;-80
2021/08/29 03:23:46;;;;;;;14.15;5.13;;;;;;;13.70;100.00;102122.72;5229397;28;20579;-80
2021/08/29 03:26:17;;;;;;;15.75;4.85;;;;;;;13.69;100.00;102123.75;5235019;28;20424;-80
2021/08/29 03:28:48;;;;;;;13.73;5.57;;;;;;;13.69;100.00;102123.75;5232752;28;20017;-80
2021/08/29 03:31:19;;;;;;;10.00;4.55;;;;;;;13.67;100.00;102125.75;5233163;28;20024;-81
2021/08/29 03:33:51;;;;;;;12.77;4.90;;;;;;;13.73;100.00;102125.97;5214974;28;20048;-80
2021/08/29 03:36:23;;;;;;;10.98;4.68;;;;;;;13.69;100.00;102116.50;5232631;28;20439;-81
2021/08/29 03:38:54;;;;;;;16.40;4.88;;;;;;;13.68;100.00;102116.66;5233459;28;20329;-81
2021/08/29 03:41:27;;;;;;;13.95;4.90;;;;;;;13.74;100.00;102116.88;5232048;28;20103;-80
2021/08/29 03:43:58;;;;;;;12.93;4.85;;;;;;;13.76;100.00;102118.59;5231304;28;20021;-80
2021/08/29 03:46:28;;;;;;;10.20;4.13;;;;;;;13.80;100.00;102111.84;5230731;28;20047;-81
2021/08/29 03:49:00;;;;;;;11.73;4.20;;;;;;;13.76;100.00;102111.34;5213286;28;20024;-80
2021/08/29 03:51:33;;;;;;;19.50;6.47;;;;;;;13.72;100.00;102108.09;5231398;28;20047;-81
2021/08/29 03:54:06;;;;;;;12.77;4.75;;;;;;;13.81;100.00;102106.31;5230341;28;20021;-81
2021/08/29 03:56:37;;;;;;;14.05;4.43;;;;;;;13.89;100.00;102108.22;5229997;28;20837;-81
2021/08/29 03:59:08;;;;;;;14.00;4.68;;;;;;;13.81;100.00;102108.19;5230052;28;20076;-81
2021/08/29 04:01:38;;;;;;;13.82;4.68;;;;;;;13.90;100.00;102099.97;5212640;28;20478;-80
2021/08/29 04:04:09;;;;;;;11.07;4.40;;;;;;;13.90;100.00;102115.31;5230693;28;20025;-81
2021/08/29 04:06:40;;;;;;;12.15;4.60;;;;;;;13.88;100.00;102107.38;5196014;28;20032;-80
2021/08/29 04:09:14;;;;;;;15.35;5.03;;;;;;;13.86;100.00;102106.69;5230401;28;20021;-81
2021/08/29 04:11:47;;;;;;;16.00;4.72;;;;;;;13.92;100.00;102097.13;5224960;28;20482;-80
2021/08/29 04:14:18;;;;;;;14.48;4.72;;;;;;;13.91;100.00;102107.06;5204346;28;20025;-81
2021/08/29 04:16:50;;;;;;;16.70;4.88;;;;;;;14.02;100.00;102100.56;5229464;28;20086;-81
2021/08/29 04:19:22;;;;;;;14.70;4.18;;;;;;;14.10;100.00;102097.06;5214189;28;20068;-80
2021/08/29 04:21:54;;;;;;;12.68;5.13;;;;;;;14.11;100.00;102091.53;5219723;28;20026;-80
2021/08/29 04:24:24;;;;;;;16.00;5.72;;;;;;;14.04;100.00;102106.63;5222576;28;20029;-81
2021/08/29 04:26:55;;;;;;;11.38;4.70;;;;;;;14.07;100.00;102100.09;5210093;28;20021;-81
2021/08/29 04:29:26;;;;;;;13.43;5.10;;;;;;;14.04;100.00;102103.94;5196196;28;20489;-80
2021/08/29 04:31:57;;;;;;;14.40;4.80;;;;;;;13.95;100.00;102096.78;5226662;28;20029;-80
2021/08/29 04:34:28;;;;;;;15.13;5.75;;;;;;;13.92;100.00;102091.72;5221141;28;20057;-80
2021/08/29 04:36:58;;;;;;;12.27;5.35;;;;;;;13.87;100.00;102094.06;5217874;28;20570;-80
2021/08/29 04:39:29;;;;;;;14.23;5.03;;;;;;;13.99;100.00;102099.03;5226247;28;20017;-81
2021/08/29 04:41:59;;;;;;;14.00;4.38;;;;;;;14.02;100.00;102087.09;5225387;28;20044;-81
2021/08/29 04:44:30;;;;;;;15.07;4.78;;;;;;;14.07;100.00;102094.69;5225427;28;20056;-80
2021/08/29 04:47:01;;;;;;;18.75;5.10;;;;;;;14.03;100.00;102096.03;5225199;28;20028;-81
2021/08/29 04:49:31;;;;;;;21.35;5.30;;;;;;;14.03;100.00;102099.56;5224795;28;20096;-81
2021/08/29 04:52:02;;;;;;;11.95;4.68;;;;;;;14.09;100.00;102092.69;5225353;28;20036;-80
2021/08/29 04:54:32;;;;;;;11.13;4.50;;;;;;;14.15;100.00;102100.97;5224657;28;20028;-80
2021/08/29 04:57:03;;;;;;;22.42;4.80;;;;;;;14.15;100.00;102102.81;5177514;28;20028;-81
2021/08/29 04:59:33;;;;;;;12.18;4.78;;;;;;;14.12;100.00;102095.91;5213960;28;20028;-81
2021/08/29 05:02:04;;;;;;;10.70;4.53;;;;;;;14.11;100.00;102110.41;5235248;28;20474;-81
2021/08/29 05:04:34;;;;;;;18.27;5.68;;;;;;;14.05;100.00;102096.69;5235215;28;20063;-81
2021/08/29 05:07:05;;;;;;;12.05;4.90;;;;;;;14.09;100.00;102095.38;5230642;28;20227;-81
2021/08/29 05:09:35;;;;;;;13.00;4.45;;;;;;;14.19;100.00;102104.22;5209655;28;20028;-80
2021/08/29 05:12:06;;;;;;;15.32;4.65;;;;;;;14.18;100.00;102105.22;5235407;28;20028;-81
2021/08/29 05:14:37;;;;;;;15.88;5.20;;;;;;;14.20;100.00;102105.91;5222022;28;20033;-80
2021/08/29 05:17:07;;;;;;;18.27;5.13;;;;;;;14.18;100.00;102108.75;5236887;28;20028;-81
2021/08/29 05:19:38;;;;;;;12.00;4.38;;;;;;;14.15;100.00;102117.16;5236569;28;20013;-81
2021/08/29 05:22:08;;;;;;;15.38;5.10;;;;;;;14.21;100.00;102111.16;5235518;28;20482;-81
2021/08/29 05:24:38;;;;;;;17.63;5.18;;;;;;;14.17;100.00;102112.47;5235411;28;20036;-80
2021/08/29 05:27:09;;;;;;;15.43;5.07;;;;;;;14.18;100.00;102116.88;5220377;28;20031;-81
2021/08/29 05:29:39;;;;;;;12.82;5.53;;;;;;;14.31;100.00;102116.44;5224048;28;20051;-80
2021/08/29 05:32:10;;;;;;;12.57;5.00;;;;;;;14.30;100.00;102108.47;5236892;28;20092;-81
2021/08/29 05:34:40;;;;;;;26.30;6.22;;;;;;;14.30;100.00;102106.63;5234763;28;20017;-80
2021/08/29 05:37:11;;;;;;;12.73;5.57;;;;;;;14.31;100.00;102112.88;5236757;28;20028;-81
2021/08/29 05:39:41;;;;;;;16.95;5.70;;;;;;;14.28;100.00;102115.91;5233939;28;20044;-81
2021/08/29 05:42:12;;;;;;;12.27;4.93;;;;;;;14.22;100.00;102112.84;5213005;28;20029;-80
2021/08/29 05:44:42;;;;;;;13.75;5.00;;;;;;;14.34;100.00;102113.41;5227745;28;20029;-80
2021/08/29 05:47:13;;;;;;;13.77;4.80;;;;;;;14.39;100.00;102102.13;5227340;28;20063;-80
2021/08/29 05:49:43;;;;;;;16.88;5.68;;;;;;;14.37;100.00;102107.69;5228823;28;20027;-79
2021/08/29 05:52:14;;;;;;;18.85;5.35;;;;;;;14.40;100.00;102109.22;5232221;28;20358;-80
2021/08/29 05:54:44;;;;;;;11.38;4.30;;;;;;;14.49;100.00;102111.84;5233186;28;20028;-80
2021/08/29 05:57:14;;;;;;;11.30;4.60;;;;;;;14.50;100.00;102113.50;5215871;28;20413;-81
2021/08/29 05:59:45;;;;;;;12.23;4.53;;;;;;;14.51;100.00;102109.00;5238221;28;20486;-81
2021/08/29 06:02:15;;;;;;;17.10;4.47;;;;;;;14.52;100.00;102107.97;5220527;28;20048;-80
2021/08/29 06:04:46;;;;;;;12.45;4.75;;;;;;;14.50;100.00;102105.41;5222710;28;20115;-81
2021/08/29 06:07:16;;;;;;;11.93;4.50;;;;;;;14.65;100.00;102111.06;5228256;28;20037;-81
2021/08/29 06:09:47;;;;;;;9.38;4.35;;;;;;;14.70;100.00;102108.72;5226027;28;20096;-80
2021/08/29 06:12:18;;;;;;;14.73;5.15;;;;;;;14.71;100.00;102110.44;5211089;28;20037;-81
2021/08/29 06:14:48;;;;;;;13.82;4.55;;;;;;;14.74;100.00;102109.25;5222468;28;20051;-81
2021/08/29 06:17:19;;;;;;;18.83;5.35;;;;;;;14.73;100.00;102111.09;5208429;28;20016;-80
2021/08/29 06:19:49;;;;;;;12.40;4.57;;;;;;;14.87;100.00;102109.63;5226293;28;20132;-81
2021/08/29 06:22:20;;;;;;;16.92;4.75;;;;;;;14.88;100.00;102114.03;5226046;28;20037;-81
2021/08/29 06:24:50;;;;;;;14.38;4.53;;;;;;;14.88;100.00;102105.06;5219235;28;20017;-81
2021/08/29 06:27:21;;;;;;;14.43;4.90;;;;;;;14.85;100.00;102102.69;5200756;28;20482;-81
2021/08/29 06:29:51;;;;;;;14.98;4.82;;;;;;;15.02;100.00;102108.00;5201180;28;20053;-81
2021/08/29 06:32:22;;;;;;;12.70;4.05;;;;;;;15.07;100.00;102101.25;5220283;28;20104;-84
2021/08/29 06:34:53;;;;;;;10.80;4.32;;;;;;;15.06;100.00;102097.72;5216648;28;20029;-81
2021/08/29 06:37:23;;;;;;;16.60;4.70;;;;;;;15.07;100.00;102098.56;5221400;28;20036;-80
2021/08/29 06:39:54;;;;;;;8.10;4.03;;;;;;;15.12;100.00;102094.34;5224651;28;20017;-83
2021/08/29 06:42:24;;;;;;;10.35;5.05;;;;;;;15.17;100.00;102100.09;5206747;28;20437;-81
2021/08/29 06:44:55;;;;;;;13.75;4.05;;;;;;;15.25;100.00;102091.97;5197602;28;20033;-80
2021/08/29 06:47:25;;;;;;;9.88;4.40;;;;;;;15.25;100.00;102096.53;5183602;28;20022;-83
2021/08/29 06:49:56;;;;;;;9.38;4.35;;;;;;;15.25;100.00;102091.97;5186455;28;20029;-84
2021/08/29 06:52:26;;;;;;;9.43;4.43;;;;;;;15.38;100.00;102094.19;5215217;28;20024;-84
2021/08/29 06:54:57;;;;;;;12.93;4.07;;;;;;;15.41;100.00;102093.88;5218321;28;20028;-82
2021/08/29 06:57:29;;;;;;;7.63;3.53;;;;;;;15.40;100.00;102096.72;5220304;28;20108;-82
2021/08/29 06:59:59;;;;;;;16.25;4.10;;;;;;;15.44;100.00;102092.69;5206482;28;20021;-81
2021/08/29 07:02:30;;;;;;;12.40;4.35;;;;;;;15.46;100.00;102096.06;5191798;28;20045;-86
2021/08/29 07:05:00;;;;;;;11.38;4.15;;;;;;;15.49;100.00;102101.97;5194174;28;20036;-82
2021/08/29 07:07:31;;;;;;;15.70;4.43;;;;;;;15.46;100.00;102094.22;5208989;28;20031;-81
2021/08/29 07:10:03;;;;;;;12.75;4.15;;;;;;;15.43;100.00;102101.81;5225949;28;20028;-80
2021/08/29 07:12:33;;;;;;;13.45;4.60;;;;;;;15.55;100.00;102097.75;5216179;28;20079;-83
2021/08/29 07:15:05;;;;;;;14.13;4.25;;;;;;;15.51;100.00;102101.81;5224724;28;20025;-80
2021/08/29 07:17:36;;;;;;;11.00;4.00;;;;;;;15.60;100.00;102099.94;5227182;28;20029;-80
2021/08/29 07:20:07;;;;;;;14.98;4.85;;;;;;;15.69;100.00;102098.97;5189557;28;20021;-80
2021/08/29 07:22:37;;;;;;;10.23;3.45;;;;;;;15.80;100.00;102102.19;5201976;28;20045;-81
2021/08/29 07:25:08;;;;;;;24.77;4.63;;;;;;;15.83;100.00;102101.00;5208531;28;20028;-80
2021/08/29 07:27:39;;;;;;;14.63;4.22;;;;;;;15.85;100.00;102098.97;5225173;28;20438;-80
2021/08/29 07:30:10;;;;;;;13.65;4.35;;;;;;;15.93;100.00;102098.97;5225915;28;20021;-81
2021/08/29 07:32:40;;;;;;;12.25;4.10;;;;;;;16.03;100.00;102096.06;5225101;28;20033;-80
2021/08/29 07:35:11;;;;;;;12.57;4.30;;;;;;;16.09;100.00;102100.78;5190983;28;20017;-80
2021/08/29 07:37:42;;;;;;;12.77;4.18;;;;;;;16.15;100.00;102102.81;5225851;28;20032;-80
2021/08/29 07:40:13;;;;;;;10.00;3.80;;;;;;;16.22;100.00;102111.09;5226101;28;20418;-80
2021/08/29 07:42:44;;;;;;;15.05;4.05;;;;;;;16.25;100.00;102097.19;5187529;28;20026;-78
2021/08/29 07:45:15;;;;;;;8.63;3.97;;;;;;;16.46;100.00;102100.19;5229592;28;20021;-78
2021/08/29 07:47:52;;;;;;;11.35;3.85;;;;;;;16.43;100.00;102097.00;5232037;28;20021;-79
2021/08/29 07:50:24;;;;;;;13.27;4.20;;;;;;;16.44;100.00;102096.81;5225521;28;20049;-80
2021/08/29 07:52:54;;;;;;;10.70;4.03;;;;;;;16.56;100.00;102100.81;5214669;28;20049;-80
2021/08/29 07:55:25;;;;;;;15.50;4.35;;;;;;;16.65;100.00;102096.22;5220907;28;20025;-77
2021/08/29 07:57:56;;;;;;;15.20;4.35;;;;;;;16.71;100.00;102092.81;5194177;28;20118;-80
2021/08/29 08:00:27;;;;;;;16.83;4.00;;;;;;;16.78;100.00;102101.97;5225811;28;20032;-81
2021/08/29 08:02:57;;;;;;;11.98;3.83;;;;;;;16.79;100.00;102105.50;5225534;28;20410;-80
2021/08/29 08:05:28;;;;;;;16.95;5.38;;;;;;;16.80;100.00;102104.47;5205215;28;20021;-80
2021/08/29 08:07:59;;;;;;;16.55;3.53;;;;;;;16.89;100.00;102110.72;5178612;28;20021;-79
2021/08/29 08:10:31;;;;;;;16.70;4.63;;;;;;;16.81;100.00;102106.16;5211815;28;20086;-79
2021/08/29 08:13:02;;;;;;;9.85;4.13;;;;;;;16.97;100.00;102105.25;5222099;28;20025;-81
2021/08/29 08:15:33;;;;;;;14.35;3.72;;;;;;;17.02;100.00;102111.84;5211240;28;20029;-80
2021/08/29 08:18:03;;;;;;;14.18;4.18;;;;;;;17.23;100.00;102115.78;5205797;28;21022;-80
2021/08/29 08:20:34;;;;;;;7.45;3.42;;;;;;;17.34;100.00;102110.78;5223725;28;20027;-80
2021/08/29 08:23:04;;;;;;;13.30;3.80;;;;;;;17.43;100.00;102103.44;5205749;28;20394;-80
2021/08/29 08:25:35;;;;;;;10.43;3.20;;;;;;;17.53;100.00;102097.75;5223424;28;20122;-80
2021/08/29 08:28:05;;;;;;;19.77;3.95;;;;;;;17.53;100.00;102103.19;5223274;28;20524;-80
2021/08/29 08:30:36;;;;;;;11.93;3.50;;;;;;;17.63;100.00;102105.66;5189425;28;20017;-80
2021/08/29 08:33:06;;;;;;;13.50;4.00;;;;;;;17.55;100.00;102107.38;5223391;28;20029;-80
2021/08/29 08:35:37;;;;;;;15.25;4.32;;;;;;;17.60;100.00;102101.41;5223636;28;20032;-81
2021/08/29 08:38:07;;;;;;;18.70;3.72;;;;;;;17.65;100.00;102099.00;5223808;28;20032;-81
2021/08/29 08:40:40;;;;;;;12.10;3.63;;;;;;;17.68;100.00;102101.38;5222928;28;20025;-81
2021/08/29 08:43:12;;;;;;;19.95;4.18;;;;;;;17.81;100.00;102103.47;5223283;28;20040;-82
2021/08/29 08:45:45;;;;;;;17.60;4.40;;;;;;;17.92;100.00;102094.03;5223310;28;20028;-81
2021/08/29 08:48:20;;;;;;;14.15;4.00;;;;;;;17.86;100.00;102101.06;5223335;28;20037;-80
2021/08/29 08:50:52;;;;;;;16.48;3.63;;;;;;;17.89;100.00;102100.69;5209961;28;20025;-80
2021/08/29 08:53:24;;;;;;;12.75;3.72;;;;;;;17.91;100.00;102108.66;5223500;28;20024;-80
2021/08/29 08:55:55;;;;;;;9.10;3.15;;;;;;;17.90;100.00;102106.97;5202953;28;20026;-82
2021/08/29 08:58:27;;;;;;;17.73;3.88;;;;;;;18.00;100.00;102108.38;5216020;28;20029;-79
2021/08/29 09:00:57;;;;;;;9.43;3.63;;;;;;;18.18;100.00;102107.22;5223475;28;20394;-80
2021/08/29 09:03:28;;;;;;;13.57;3.15;;;;;;;18.20;100.00;102102.44;5222532;28;20029;-82
2021/08/29 09:05:59;;;;;;;15.45;3.40;;;;;;;18.20;100.00;102105.97;5223148;28;20034;-82
2021/08/29 09:08:29;;;;;;;8.18;3.00;;;;;;;18.15;100.00;102097.53;5222884;28;20021;-81
2021/08/29 09:11:00;;;;;;;13.40;4.00;;;;;;;18.21;100.00;102095.94;5222340;28;20107;-81
2021/08/29 09:13:52;;;;;;;13.45;3.55;;;;;;;18.49;100.00;102102.44;5217799;28;20022;-81
2021/08/29 09:16:25;;;;;;;9.45;3.35;;;;;;;18.49;100.00;102104.31;5218840;28;20029;-81
2021/08/29 09:19:00;;;;;;;13.35;4.43;;;;;;;18.62;100.00;102101.75;5226774;28;20017;-81
2021/08/29 09:21:33;;;;;;;14.13;3.22;;;;;;;18.64;100.00;102107.84;5223561;28;20040;-81
2021/08/29 09:24:11;;;;;;;14.55;3.25;;;;;;;18.64;100.00;102107.84;5206753;28;20025;-81
2021/08/29 09:26:43;;;;;;;12.75;3.70;;;;;;;18.85;100.00;102102.50;5227090;28;20056;-81
2021/08/29 09:29:23;;;;;;;18.80;3.70;;;;;;;18.65;100.00;102109.53;5226996;28;20021;-81
2021/08/29 09:31:54;;;;;;;21.77;3.40;;;;;;;18.63;100.00;102108.91;5227248;28;20418;-82
2021/08/29 09:34:25;;;;;;;18.85;3.40;;;;;;;18.86;100.00;102103.34;5224078;28;20512;-80
2021/08/29 09:37:00;;;;;;;8.45;3.20;;;;;;;18.88;100.00;102104.03;5216945;28;20029;-81
2021/08/29 09:39:30;;;;;;;17.33;3.47;;;;;;;19.14;100.00;102098.88;5227025;28;20095;-81
2021/08/29 09:42:03;;;;;;;12.32;3.40;;;;;;;19.06;100.00;102101.69;5195831;28;20478;-81
2021/08/29 09:44:34;;;;;;;11.65;3.40;;;;;;;18.88;100.00;102107.59;5214075;28;20033;-81
2021/08/29 09:47:06;;;;;;;8.30;3.10;;;;;;;18.94;100.00;102105.13;5227099;28;20055;-82
2021/08/29 09:49:37;;;;;;;9.90;3.42;;;;;;;19.02;100.00;102103.13;5226908;28;20439;-81
2021/08/29 09:52:08;;;;;;;14.70;3.17;;;;;;;19.01;100.00;102100.59;5226957;28;20067;-81
2021/08/29 09:54:43;;;;;;;15.68;3.53;;;;;;;18.95;100.00;102101.38;5227341;28;20056;-82
2021/08/29 09:57:14;;;;;;;13.77;3.20;;;;;;;18.95;100.00;102093.22;5227505;28;20520;-83
2021/08/29 09:59:49;;;;;;;13.18;2.83;;;;;;;19.15;100.00;102094.28;5227342;28;20111;-81
2021/08/29 10:02:22;;;;;;;11.88;3.00;;;;;;;19.16;100.00;102090.50;5220063;28;20083;-82
2021/08/29 10:05:11;;;;;;;8.43;3.03;;;;;;;19.25;100.00;102083.91;5222281;28;20136;-82
2021/08/29 10:08:04;;;;;;;8.63;2.67;;;;;;;19.10;100.00;102080.41;5226634;28;20431;-80
2021/08/29 10:10:38;;;;;;;11.90;2.78;;;;;;;19.17;100.00;102075.88;5213935;28;20029;-80
2021/08/29 10:13:08;;;;;;;9.82;3.13;;;;;;;19.25;100.00;102072.19;5212494;28;20055;-81
2021/08/29 10:15:39;;;;;;;10.35;3.53;;;;;;;19.16;100.00;102074.19;5226753;28;20048;-81
2021/08/29 10:18:11;;;;;;;15.63;3.42;;;;;;;19.07;100.00;102075.34;5226712;28;20075;-79
2021/08/29 10:20:41;;;;;;;8.30;2.78;;;;;;;19.01;100.00;102073.41;5226307;28;20025;-80
2021/08/29 10:23:17;;;;;;;11.05;3.22;;;;;;;18.75;100.00;102074.78;5208695;28;20101;-80
2021/08/29 10:25:52;;;;;;;6.82;3.20;;;;;;;18.59;100.00;102073.09;5221670;28;20492;-80
2021/08/29 10:28:26;;;;;;;9.77;2.83;;;;;;;18.41;100.00;102072.63;5209158;28;20029;-84
2021/08/29 10:30:59;;;;;;;12.10;3.42;;;;;;;18.21;100.00;102074.22;5221277;28;20037;-80
2021/08/29 10:33:30;;;;;;;13.45;3.50;;;;;;;18.15;100.00;102078.53;5222595;28;20024;-80
2021/08/29 10:36:01;;;;;;;11.73;3.30;;;;;;;18.18;100.00;102077.34;5222506;28;20025;-79
2021/08/29 10:38:32;;;;;;;12.60;3.45;;;;;;;18.19;100.00;102079.84;5222647;28;20086;-80
2021/08/29 10:41:02;;;;;;;17.17;3.50;;;;;;;18.03;100.00;102075.44;5221526;28;20020;-80
2021/08/29 10:43:36;;;;;;;10.05;3.20;;;;;;;18.05;100.00;102080.69;5204599;28;20067;-81
2021/08/29 10:46:09;;;;;;;11.18;3.30;;;;;;;18.16;100.00;102068.50;5208682;28;20109;-82
2021/08/29 10:48:41;;;;;;;10.93;3.60;;;;;;;18.11;100.00;102074.50;5221419;28;20090;-82
2021/08/29 10:51:15;;;;;;;9.50;3.63;;;;;;;18.22;100.00;102081.34;5220847;28;20391;-79
2021/08/29 10:53:51;;;;;;;9.32;2.50;;;;;;;18.21;100.00;102080.50;5220849;28;20044;-81
2021/08/29 10:56:25;;;;;;;13.90;2.78;;;;;;;18.12;100.00;102073.47;5221466;28;20040;-80
2021/08/29 10:59:07;;;;;;;5.65;2.75;;;;;;;18.19;100.00;102084.44;5221258;28;20371;-79
2021/08/29 11:01:39;;;;;;;11.70;2.92;;;;;;;18.05;100.00;102069.81;5220545;28;20029;-82
2021/08/29 11:04:18;;;;;;;9.90;2.45;;;;;;;17.82;100.00;102070.75;5220889;28;20102;-81
2021/08/29 11:06:51;;;;;;;11.20;2.35;;;;;;;17.71;100.00;102063.00;5220884;28;20017;-82
2021/08/29 11:12:26;;;;;;;9.88;2.70;;;;;;;17.82;100.00;102059.88;5220358;28;20057;-80
2021/08/29 11:14:59;;;;;;;9.45;2.30;;;;;;;18.01;100.00;102065.78;5220844;28;20602;-80
2021/08/29 11:17:32;;;;;;;8.18;2.63;;;;;;;17.97;100.00;102059.03;5220973;28;20033;-80
2021/08/29 11:20:03;;;;;;;8.02;2.40;;;;;;;17.99;100.00;102057.84;5220631;28;20382;-81
2021/08/29 11:22:41;;;;;;;11.38;2.78;;;;;;;18.06;100.00;102068.78;5224918;28;20028;-82
2021/08/29 11:25:22;;;;;;;6.75;2.17;;;;;;;18.05;100.00;102064.38;5213633;28;20033;-81
2021/08/29 11:28:01;;;;;;;8.52;2.15;;;;;;;18.06;100.00;102068.78;5226423;28;20036;-80
2021/08/29 11:30:44;;;;;;;12.00;3.22;;;;;;;17.83;100.00;102063.44;5226004;28;20031;-82
2021/08/29 11:33:26;;;;;;;10.15;2.47;;;;;;;17.85;100.00;102059.50;5225876;28;20021;-80